Time;durP1;ratioP1;P1;durP2;ratioP2;P2;SDS_P1;SDS_P2;PMS_P1;PMS_P2;Temp;Humidity;BMP_temperature;BMP_pressure;BME280_temperature;BME280_humidity;BME280_pressure;Samples;Min_cycle;Max_cycle;Signal;HPM_P1;HPM_P2
2022/03/19 00:00:35;;;;;;;;;;;;;;;11.39;100.00;101681.19;5135142;27;20394;-60
2022/03/19 00:03:00;;;;;;;;;;;;;;;11.13;100.00;101680.13;5128929;27;19915;-60
2022/03/19 00:05:25;;;;;;;;;;;;;;;10.93;100.00;101672.22;5135246;27;19916;-61
2022/03/19 00:07:51;;;;;;;;;;;;;;;11.34;100.00;101672.56;5130450;27;19927;-60
2022/03/19 00:10:16;;;;;;;;;;;;;;;11.19;100.00;101668.13;5134352;27;19929;-60
2022/03/19 00:12:42;;;;;;;;;;;;;;;11.04;100.00;101673.19;5136201;27;20365;-60
2022/03/19 00:15:08;;;;;;;;;;;;;;;11.15;100.00;101666.38;5131476;27;20014;-60
2022/03/19 00:17:33;;;;;;;;;;;;;;;11.36;100.00;101657.09;5135909;27;20355;-60
2022/03/19 00:19:58;;;;;;;;;;;;;;;10.88;100.00;101660.16;5111569;27;20030;-60
2022/03/19 00:22:24;;;;;;;;;;;;;;;10.80;100.00;101663.50;5131695;27;19965;-60
2022/03/19 00:24:49;;;;;;;;;;;;;;;10.72;100.00;101655.69;5134659;27;20318;-61
2022/03/19 00:27:14;;;;;;;;;;;;;;;10.89;100.00;101668.75;5096278;27;19950;-61
2022/03/19 00:29:39;;;;;;;;;;;;;;;10.63;100.00;101666.78;5133079;27;19915;-61
2022/03/19 00:32:05;;;;;;;;;;;;;;;10.15;100.00;101677.31;5135603;27;19929;-60
2022/03/19 00:34:32;;;;;;;;;;;;;;;10.57;100.00;101668.41;5134903;27;20006;-60
2022/03/19 00:36:58;;;;;;;;;;;;;;;9.59;100.00;101680.84;5136736;27;19919;-60
2022/03/19 00:39:23;;;;;;;;;;;;;;;10.07;100.00;101671.22;5129498;27;19915;-60
2022/03/19 00:41:48;;;;;;;;;;;;;;;10.35;100.00;101665.56;5134820;27;19923;-60
2022/03/19 00:44:14;;;;;;;;;;;;;;;10.13;100.00;101666.16;5131896;27;20332;-60
2022/03/19 00:46:39;;;;;;;;;;;;;;;10.36;100.00;101662.16;5133965;27;19970;-60
2022/03/19 00:49:04;;;;;;;;;;;;;;;10.50;100.00;101657.16;5115735;27;19915;-60
2022/03/19 00:51:31;;;;;;;;;;;;;;;10.42;100.00;101662.25;5135556;27;20337;-61
2022/03/19 00:53:56;;;;;;;;;;;;;;;10.96;100.00;101654.19;5131840;27;20295;-60
2022/03/19 00:56:22;;;;;;;;;;;;;;;10.44;100.00;101649.38;5134846;27;19918;-60
2022/03/19 00:58:47;;;;;;;;;;;;;;;10.96;100.00;101654.19;5130495;27;19914;-60
2022/03/19 01:01:12;;;;;;;;;;;;;;;11.12;100.00;101658.63;5132966;27;20399;-60
2022/03/19 01:03:37;;;;;;;;;;;;;;;10.55;100.00;101652.06;5135182;27;19918;-61
2022/03/19 01:06:03;;;;;;;;;;;;;;;11.02;100.00;101652.53;5115644;27;20147;-61
2022/03/19 01:08:28;;;;;;;;;;;;;;;10.72;100.00;101645.38;5131640;27;19915;-60
2022/03/19 01:10:53;;;;;;;;;;;;;;;10.23;100.00;101647.38;5128527;27;20201;-60
2022/03/19 01:13:19;;;;;;;;;;;;;;;10.73;100.00;101635.94;5116369;27;19942;-60
2022/03/19 01:15:44;;;;;;;;;;;;;;;10.58;100.00;101636.63;5132597;27;19954;-60
2022/03/19 01:18:09;;;;;;;;;;;;;;;10.81;100.00;101631.69;5131891;27;20346;-60
2022/03/19 01:20:34;;;;;;;;;;;;;;;10.09;100.00;101639.50;5127863;27;19926;-61
2022/03/19 01:23:00;;;;;;;;;;;;;;;10.48;100.00;101634.81;5131942;27;21228;-60
2022/03/19 01:25:26;;;;;;;;;;;;;;;10.58;100.00;101642.66;5135123;27;19919;-60
2022/03/19 01:27:51;;;;;;;;;;;;;;;10.30;100.00;101638.91;5131327;27;20015;-60
2022/03/19 01:30:17;;;;;;;;;;;;;;;9.81;100.00;101652.00;5129164;27;19968;-61
2022/03/19 01:32:43;;;;;;;;;;;;;;;9.35;100.00;101647.88;5134833;27;20296;-60
2022/03/19 01:35:08;;;;;;;;;;;;;;;9.36;100.00;101652.19;5131721;27;19926;-60
2022/03/19 01:37:34;;;;;;;;;;;;;;;9.90;100.00;101646.13;5130516;27;20396;-60
2022/03/19 01:39:59;;;;;;;;;;;;;;;9.70;100.00;101647.56;5129481;27;19966;-60
2022/03/19 01:42:25;;;;;;;;;;;;;;;9.66;100.00;101635.47;5130951;27;19919;-59
2022/03/19 01:44:51;;;;;;;;;;;;;;;9.67;100.00;101634.63;5132804;27;19963;-60
2022/03/19 01:47:17;;;;;;;;;;;;;;;10.07;100.00;101635.16;5130490;27;19923;-60
2022/03/19 01:49:42;;;;;;;;;;;;;;;9.96;100.00;101637.59;5130475;27;19919;-60
2022/03/19 01:52:07;;;;;;;;;;;;;;;9.90;100.00;101637.50;5130192;27;19919;-60
2022/03/19 01:54:33;;;;;;;;;;;;;;;9.68;100.00;101636.38;5128603;27;19926;-60
2022/03/19 01:56:59;;;;;;;;;;;;;;;9.95;100.00;101636.75;5109991;27;19943;-60
2022/03/19 01:59:26;;;;;;;;;;;;;;;9.60;100.00;101633.69;5127808;27;20418;-60
2022/03/19 02:01:51;;;;;;;;;;;;;;;9.27;100.00;101639.19;5114659;27;20009;-60
2022/03/19 02:04:18;;;;;;;;;;;;;;;8.89;100.00;101635.13;5110800;27;20058;-60
2022/03/19 02:06:44;;;;;;;;;;;;;;;9.55;100.00;101633.59;5134227;27;19922;-60
2022/03/19 02:09:09;;;;;;;;;;;;;;;8.72;100.00;101634.84;5129735;27;19950;-60
2022/03/19 02:11:35;;;;;;;;;;;;;;;9.49;100.00;101628.41;5135956;27;19911;-60
2022/03/19 02:14:01;;;;;;;;;;;;;;;9.44;100.00;101627.44;5128733;27;20367;-60
2022/03/19 02:16:26;;;;;;;;;;;;;;;9.99;100.00;101625.66;5129682;27;19930;-60
2022/03/19 02:18:51;;;;;;;;;;;;;;;9.21;100.00;101616.81;5129511;27;19923;-60
2022/03/19 02:21:17;;;;;;;;;;;;;;;9.66;100.00;101615.75;5112495;27;19996;-59
2022/03/19 02:26:33;;;;;;;;;;;;;;;10.20;100.00;101609.59;5091922;27;20288;-59
2022/03/19 02:28:58;;;;;;;;;;;;;;;9.40;100.00;101603.41;5128852;27;19926;-60
2022/03/19 02:31:24;;;;;;;;;;;;;;;9.12;100.00;101609.84;5130239;27;19919;-60
2022/03/19 02:33:49;;;;;;;;;;;;;;;9.25;100.00;101604.88;5128702;27;19920;-60
2022/03/19 02:36:16;;;;;;;;;;;;;;;9.03;100.00;101599.38;5124639;27;20364;-59
2022/03/19 02:38:41;;;;;;;;;;;;;;;9.60;100.00;101595.97;5130336;27;19923;-58
2022/03/19 02:41:07;;;;;;;;;;;;;;;9.93;100.00;101584.38;5127616;27;19920;-60
2022/03/19 02:43:32;;;;;;;;;;;;;;;10.03;100.00;101586.22;5131189;27;19946;-60
2022/03/19 02:45:58;;;;;;;;;;;;;;;9.53;100.00;101583.84;5110280;27;19926;-60
2022/03/19 02:48:23;;;;;;;;;;;;;;;9.89;100.00;101576.59;5129326;27;19969;-60
2022/03/19 02:50:49;;;;;;;;;;;;;;;9.17;100.00;101579.91;5128548;27;20287;-59
2022/03/19 02:53:14;;;;;;;;;;;;;;;9.42;100.00;101585.44;5127250;27;19923;-60
2022/03/19 02:55:40;;;;;;;;;;;;;;;9.19;100.00;101578.25;5127578;27;19924;-59
2022/03/19 02:58:06;;;;;;;;;;;;;;;9.58;100.00;101582.22;5112089;27;19911;-60
2022/03/19 03:00:31;;;;;;;;;;;;;;;9.40;100.00;101561.41;5129177;27;19919;-60
2022/03/19 03:02:57;;;;;;;;;;;;;;;9.67;100.00;101573.75;5130597;27;19915;-60
2022/03/19 03:05:22;;;;;;;;;;;;;;;9.92;100.00;101572.38;5133903;27;20375;-59
2022/03/19 03:07:47;;;;;;;;;;;;;;;8.95;100.00;101568.44;5127585;27;19926;-60
2022/03/19 03:10:14;;;;;;;;;;;;;;;8.46;100.00;101571.88;5128351;27;19958;-60
2022/03/19 03:12:39;;;;;;;;;;;;;;;8.75;100.00;101573.22;5125006;27;19925;-59
2022/03/19 03:15:05;;;;;;;;;;;;;;;9.06;100.00;101571.19;5133014;27;19916;-60
2022/03/19 03:17:30;;;;;;;;;;;;;;;9.19;100.00;101570.53;5117193;27;20034;-60
2022/03/19 03:19:56;;;;;;;;;;;;;;;8.69;100.00;101570.59;5135282;27;19976;-59
2022/03/19 03:22:21;;;;;;;;;;;;;;;9.15;100.00;101573.03;5139872;27;19930;-56
2022/03/19 03:24:47;;;;;;;;;;;;;;;9.43;100.00;101564.84;5139375;27;19934;-59
2022/03/19 03:27:12;;;;;;;;;;;;;;;9.51;100.00;101557.25;5136888;27;20369;-59
2022/03/19 03:29:37;;;;;;;;;;;;;;;9.39;100.00;101554.50;5136484;27;19960;-58
2022/03/19 03:32:04;;;;;;;;;;;;;;;9.28;100.00;101562.06;5137574;27;20381;-59
2022/03/19 03:34:29;;;;;;;;;;;;;;;9.09;100.00;101554.94;5137343;27;19911;-59
2022/03/19 03:36:54;;;;;;;;;;;;;;;8.72;100.00;101560.34;5138797;27;19916;-59
2022/03/19 03:39:20;;;;;;;;;;;;;;;8.97;100.00;101550.47;5136018;27;20615;-59
2022/03/19 03:41:46;;;;;;;;;;;;;;;9.21;100.00;101555.09;5137756;27;19915;-59
2022/03/19 03:44:11;;;;;;;;;;;;;;;8.82;100.00;101551.06;5134269;27;20023;-61
2022/03/19 03:46:36;;;;;;;;;;;;;;;8.88;100.00;101558.03;5133505;27;19911;-59
2022/03/19 03:49:01;;;;;;;;;;;;;;;8.85;100.00;101552.81;5135042;27;19995;-59
2022/03/19 03:51:27;;;;;;;;;;;;;;;9.13;100.00;101557.56;5134442;27;19919;-59
2022/03/19 03:53:52;;;;;;;;;;;;;;;8.76;100.00;101561.28;5139463;27;19911;-60
2022/03/19 03:56:17;;;;;;;;;;;;;;;9.09;100.00;101558.34;5116756;27;19915;-59
2022/03/19 03:58:43;;;;;;;;;;;;;;;8.66;100.00;101557.66;5133419;27;20064;-59
2022/03/19 04:01:08;;;;;;;;;;;;;;;8.90;100.00;101553.78;5135391;27;19924;-58
2022/03/19 04:03:34;;;;;;;;;;;;;;;8.99;100.00;101554.78;5137562;27;19918;-59
2022/03/19 04:06:00;;;;;;;;;;;;;;;9.00;100.00;101550.50;5139283;27;19916;-59
2022/03/19 04:08:25;;;;;;;;;;;;;;;9.06;100.00;101549.75;5134633;27;20277;-59
2022/03/19 04:10:50;;;;;;;;;;;;;;;9.03;100.00;101545.41;5135543;27;20478;-59
2022/03/19 04:13:15;;;;;;;;;;;;;;;8.76;100.00;101551.84;5134711;27;19961;-59
2022/03/19 04:15:41;;;;;;;;;;;;;;;8.65;100.00;101547.38;5135274;27;19915;-58
2022/03/19 04:18:06;;;;;;;;;;;;;;;8.88;100.00;101550.31;5135743;27;20443;-59
2022/03/19 04:20:32;;;;;;;;;;;;;;;8.36;100.00;101551.13;5140578;27;20380;-57
2022/03/19 04:22:57;;;;;;;;;;;;;;;8.14;100.00;101546.44;5133676;27;19920;-59
2022/03/19 04:25:23;;;;;;;;;;;;;;;8.42;100.00;101549.56;5135075;27;19911;-58
2022/03/19 04:27:49;;;;;;;;;;;;;;;8.21;100.00;101540.59;5117600;27;20850;-59
2022/03/19 04:30:16;;;;;;;;;;;;;;;8.46;100.00;101535.91;5117838;27;20364;-59
2022/03/19 04:32:44;;;;;;;;;;;;;;;8.24;100.00;101550.06;5133389;27;19915;-59
2022/03/19 04:38:01;;;;;;;;;;;;;;;8.73;100.00;101546.66;5134405;27;19968;-58
2022/03/19 04:40:26;;;;;;;;;;;;;;;8.64;100.00;101538.78;5134239;27;19934;-59
2022/03/19 04:42:51;;;;;;;;;;;;;;;8.51;100.00;101549.72;5133845;27;19915;-59
2022/03/19 04:45:17;;;;;;;;;;;;;;;8.32;100.00;101544.19;5133252;27;20395;-59
2022/03/19 04:47:42;;;;;;;;;;;;;;;8.03;100.00;101545.34;5117690;27;19915;-60
2022/03/19 04:50:07;;;;;;;;;;;;;;;8.21;100.00;101543.16;5135663;27;19916;-59
2022/03/19 04:52:33;;;;;;;;;;;;;;;7.80;100.00;101542.34;5135302;27;19911;-59
2022/03/19 04:55:00;;;;;;;;;;;;;;;7.20;100.00;101538.50;5118776;27;20039;-58
2022/03/19 04:57:26;;;;;;;;;;;;;;;8.07;100.00;101542.00;5133604;27;19911;-58
2022/03/19 04:59:51;;;;;;;;;;;;;;;8.29;100.00;101539.00;5135125;27;19919;-60
2022/03/19 05:02:17;;;;;;;;;;;;;;;8.31;100.00;101537.34;5135916;27;19971;-58
2022/03/19 05:04:42;;;;;;;;;;;;;;;7.66;100.00;101539.50;5132401;27;20265;-60
2022/03/19 05:07:07;;;;;;;;;;;;;;;8.25;100.00;101547.50;5133211;27;20084;-56
2022/03/19 05:12:29;;;;;;;;;;;;;;;8.34;100.00;101547.66;5134647;27;19980;-58
2022/03/19 05:14:55;;;;;;;;;;;;;;;8.32;100.00;101551.91;5133044;27;19915;-59
2022/03/19 05:17:20;;;;;;;;;;;;;;;8.22;100.00;101551.72;5132555;27;19919;-58
2022/03/19 05:19:46;;;;;;;;;;;;;;;8.11;100.00;101554.06;5132207;27;19944;-60
2022/03/19 05:22:11;;;;;;;;;;;;;;;8.17;100.00;101549.06;5135449;27;19980;-60
2022/03/19 05:24:36;;;;;;;;;;;;;;;8.07;100.00;101548.00;5134831;27;19911;-59
2022/03/19 05:27:01;;;;;;;;;;;;;;;8.32;100.00;101544.19;5135571;27;20269;-59
2022/03/19 05:29:27;;;;;;;;;;;;;;;8.38;100.00;101549.44;5137304;27;19918;-60
2022/03/19 05:31:52;;;;;;;;;;;;;;;8.26;100.00;101554.38;5132442;27;19925;-59
2022/03/19 05:34:29;;;;;;;;;;;;;;;8.05;100.00;101556.50;5133408;27;19942;-60
2022/03/19 05:36:55;;;;;;;;;;;;;;;7.66;100.00;101560.00;5132137;27;19915;-60
2022/03/19 05:39:21;;;;;;;;;;;;;;;6.43;100.00;101573.38;5134011;27;19919;-60
2022/03/19 05:41:46;;;;;;;;;;;;;;;6.41;100.00;101574.13;5133929;27;19919;-59
2022/03/19 05:44:11;;;;;;;;;;;;;;;6.23;100.00;101575.38;5115395;27;20283;-60
2022/03/19 05:46:36;;;;;;;;;;;;;;;6.19;100.00;101576.13;5132631;27;19922;-59
2022/03/19 05:49:02;;;;;;;;;;;;;;;6.82;100.00;101582.00;5133541;27;19970;-60
2022/03/19 05:51:27;;;;;;;;;;;;;;;7.77;100.00;101579.06;5132233;27;19915;-59
2022/03/19 05:53:52;;;;;;;;;;;;;;;7.64;100.00;101579.63;5131903;27;19916;-60
2022/03/19 05:56:18;;;;;;;;;;;;;;;7.81;100.00;101580.00;5133519;27;20479;-60
2022/03/19 05:58:43;;;;;;;;;;;;;;;6.65;100.00;101585.00;5132218;27;19919;-59
2022/03/19 06:01:08;;;;;;;;;;;;;;;6.62;100.00;101590.06;5135549;27;19920;-59
2022/03/19 06:03:33;;;;;;;;;;;;;;;6.48;100.00;101596.53;5130907;27;19925;-60
2022/03/19 06:05:59;;;;;;;;;;;;;;;6.91;100.00;101593.38;5133777;27;20292;-59
2022/03/19 06:08:24;;;;;;;;;;;;;;;6.58;100.00;101605.31;5133973;27;19957;-59
2022/03/19 06:10:49;;;;;;;;;;;;;;;6.39;100.00;101596.28;5136037;27;19915;-59
2022/03/19 06:13:14;;;;;;;;;;;;;;;7.39;100.00;101601.28;5132524;27;19915;-59
2022/03/19 06:15:40;;;;;;;;;;;;;;;7.48;100.00;101587.00;5132550;27;19923;-59
2022/03/19 06:18:05;;;;;;;;;;;;;;;6.90;100.00;101596.75;5131960;27;19915;-59
2022/03/19 06:20:30;;;;;;;;;;;;;;;7.44;100.00;101603.16;5133154;27;20395;-60
2022/03/19 06:23:00;;;;;;;;;;;;;;;6.00;100.00;101595.22;5131872;27;20019;-60
2022/03/19 06:25:25;;;;;;;;;;;;;;;6.30;100.00;101601.16;5132719;27;19919;-60
2022/03/19 06:27:51;;;;;;;;;;;;;;;7.01;100.00;101614.09;5130076;27;20329;-57
2022/03/19 06:30:16;;;;;;;;;;;;;;;6.75;100.00;101605.72;5132548;27;19915;-58
2022/03/19 06:38:48;;;;;;;;;;;;;;;7.93;100.00;101593.94;5129098;27;19923;-59
2022/03/19 06:41:14;;;;;;;;;;;;;;;7.70;100.00;101597.72;5131099;27;19938;-60
2022/03/19 06:43:39;;;;;;;;;;;;;;;8.18;100.00;101594.44;5132746;27;20018;-59
2022/03/19 06:46:05;;;;;;;;;;;;;;;8.44;100.00;101589.84;5133283;27;20280;-60
2022/03/19 06:48:30;;;;;;;;;;;;;;;7.26;100.00;101605.28;5112606;27;19920;-58
2022/03/19 06:51:15;;;;;;;;;;;;;;;7.81;100.00;101605.66;5131245;27;19919;-59
2022/03/19 06:53:40;;;;;;;;;;;;;;;8.28;100.00;101608.28;5135957;27;20303;-58
2022/03/19 06:56:06;;;;;;;;;;;;;;;8.41;100.00;101601.75;5138345;27;19919;-60
2022/03/19 06:58:32;;;;;;;;;;;;;;;8.47;100.00;101594.16;5133040;27;19919;-60
2022/03/19 07:00:57;;;;;;;;;;;;;;;8.55;100.00;101597.72;5138393;27;20365;-60
2022/03/19 07:03:23;;;;;;;;;;;;;;;7.61;100.00;101594.97;5133588;27;19984;-59
2022/03/19 07:05:48;;;;;;;;;;;;;;;7.93;100.00;101599.06;5132947;27;19920;-60
2022/03/19 07:08:14;;;;;;;;;;;;;;;7.50;100.00;101590.47;5136165;27;19922;-60
2022/03/19 07:10:40;;;;;;;;;;;;;;;8.48;100.00;101590.72;5139021;27;19919;-60
2022/03/19 07:13:05;;;;;;;;;;;;;;;8.32;100.00;101584.41;5137323;27;19911;-60
2022/03/19 07:15:31;;;;;;;;;;;;;;;8.53;100.00;101583.97;5135651;27;19912;-59
2022/03/19 07:17:56;;;;;;;;;;;;;;;8.89;100.00;101593.16;5135362;27;19961;-59
2022/03/19 07:20:22;;;;;;;;;;;;;;;9.12;100.00;101586.69;5141127;27;19919;-60
2022/03/19 07:23:10;;;;;;;;;;;;;;;8.81;100.00;101590.47;5137713;27;19920;-58
2022/03/19 07:25:36;;;;;;;;;;;;;;;8.60;100.00;101588.41;5136261;27;20463;-60
2022/03/19 07:28:02;;;;;;;;;;;;;;;8.10;100.00;101588.28;5138531;27;19962;-60
2022/03/19 07:30:28;;;;;;;;;;;;;;;8.84;100.00;101594.78;5137284;27;19923;-60
2022/03/19 07:32:53;;;;;;;;;;;;;;;8.33;100.00;101594.72;5134543;27;19919;-60
2022/03/19 07:35:19;;;;;;;;;;;;;;;9.43;100.00;101587.16;5135848;27;19911;-59
2022/03/19 07:37:44;;;;;;;;;;;;;;;8.75;100.00;101596.34;5118844;27;19915;-59
2022/03/19 07:43:14;;;;;;;;;;;;;;;8.76;100.00;101589.53;5137652;27;19926;-60
2022/03/19 07:45:40;;;;;;;;;;;;;;;9.13;100.00;101588.41;5135325;27;20010;-60
2022/03/19 07:48:05;;;;;;;;;;;;;;;9.42;100.00;101580.28;5135482;27;19915;-60
2022/03/19 07:50:34;;;;;;;;;;;;;;;8.74;100.00;101584.38;5136389;27;20013;-60
2022/03/19 07:52:59;;;;;;;;;;;;;;;8.84;100.00;101584.50;5134768;27;19915;-58
2022/03/19 07:55:25;;;;;;;;;;;;;;;8.35;100.00;101579.34;5135846;27;20277;-60
2022/03/19 07:57:50;;;;;;;;;;;;;;;9.74;100.00;101577.25;5117306;27;19927;-60
2022/03/19 08:00:16;;;;;;;;;;;;;;;10.13;100.00;101560.59;5137042;27;19915;-58
2022/03/19 08:02:41;;;;;;;;;;;;;;;9.72;100.00;101573.81;5132369;27;20345;-62
2022/03/19 08:05:07;;;;;;;;;;;;;;;8.67;100.00;101572.25;5134029;27;19921;-60
2022/03/19 08:07:32;;;;;;;;;;;;;;;9.60;100.00;101564.22;5098927;27;19984;-60
2022/03/19 08:09:58;;;;;;;;;;;;;;;9.00;100.00;101571.94;5134684;27;19911;-60
2022/03/19 08:12:24;;;;;;;;;;;;;;;9.15;100.00;101568.75;5116393;27;20382;-60
2022/03/19 08:14:49;;;;;;;;;;;;;;;10.05;100.00;101556.19;5136619;27;19915;-60
2022/03/19 08:17:14;;;;;;;;;;;;;;;9.49;100.00;101551.22;5135391;27;19912;-60
2022/03/19 08:19:41;;;;;;;;;;;;;;;9.80;100.00;101546.47;5134990;27;19915;-61
2022/03/19 08:22:08;;;;;;;;;;;;;;;9.30;100.00;101559.50;5115859;27;20010;-59
2022/03/19 08:24:33;;;;;;;;;;;;;;;9.96;100.00;101553.50;5135892;27;19971;-60
2022/03/19 08:26:58;;;;;;;;;;;;;;;9.56;100.00;101557.31;5135488;27;19915;-58
2022/03/19 08:29:41;;;;;;;;;;;;;;;10.63;100.00;101552.53;5133774;27;19916;-59
2022/03/19 08:40:57;;;;;;;;;;;;;;;9.53;100.00;101552.97;5134467;27;20296;-60
2022/03/19 08:43:22;;;;;;;;;;;;;;;9.44;100.00;101563.13;5137508;27;19917;-60
2022/03/19 08:45:47;;;;;;;;;;;;;;;10.67;100.00;101560.28;5134723;27;19919;-60
2022/03/19 08:48:13;;;;;;;;;;;;;;;10.92;100.00;101565.63;5133422;27;20354;-59
2022/03/19 08:50:39;;;;;;;;;;;;;;;10.39;100.00;101564.31;5134046;27;19920;-59
2022/03/19 08:53:04;;;;;;;;;;;;;;;10.92;100.00;101564.78;5132634;27;19988;-59
2022/03/19 08:55:29;;;;;;;;;;;;;;;10.91;100.00;101555.31;5133231;27;19961;-60
2022/03/19 08:57:54;;;;;;;;;;;;;;;10.61;100.00;101552.50;5132534;27;19976;-58
2022/03/19 09:00:20;;;;;;;;;;;;;;;11.82;100.00;101538.63;5131204;27;19966;-60
2022/03/19 09:02:45;;;;;;;;;;;;;;;11.39;100.00;101534.13;5134823;27;19919;-59
2022/03/19 09:05:11;;;;;;;;;;;;;;;10.97;100.00;101532.13;5135403;27;19919;-59
2022/03/19 09:07:36;;;;;;;;;;;;;;;10.67;100.00;101542.25;5135711;27;19955;-60
2022/03/19 09:10:02;;;;;;;;;;;;;;;11.55;100.00;101519.59;5134102;27;19968;-57
2022/03/19 09:12:27;;;;;;;;;;;;;;;12.67;100.00;101513.81;5133718;27;19911;-59
2022/03/19 09:21:32;;;;;;;;;;;;;;;12.39;100.00;101497.47;5133050;27;19926;-59
2022/03/19 09:24:03;;;;;;;;;;;;;;;11.63;100.00;101494.69;5130338;27;20576;-60
2022/03/19 09:26:29;;;;;;;;;;;;;;;12.19;100.00;101489.69;5134487;27;19926;-60
2022/03/19 09:28:55;;;;;;;;;;;;;;;11.55;99.33;101486.03;5131023;27;19997;-59
2022/03/19 09:31:20;;;;;;;;;;;;;;;10.83;97.14;101490.78;5112312;27;19944;-58
2022/03/19 09:33:46;;;;;;;;;;;;;;;11.46;97.23;101489.44;5133887;27;19919;-58
2022/03/19 09:36:12;;;;;;;;;;;;;;;10.62;91.32;101494.09;5131631;27;19947;-59
2022/03/19 09:38:37;;;;;;;;;;;;;;;12.20;86.89;101470.72;5115411;27;20015;-59
2022/03/19 09:41:02;;;;;;;;;;;;;;;11.70;82.25;101470.63;5128517;27;19927;-59
2022/03/19 09:43:29;;;;;;;;;;;;;;;12.69;87.38;101478.50;5133722;27;19918;-59
2022/03/19 09:45:54;;;;;;;;;;;;;;;11.53;82.04;101472.25;5130923;27;19919;-59
2022/03/19 09:48:20;;;;;;;;;;;;;;;10.54;79.11;101477.72;5113591;27;19971;-59
2022/03/19 09:50:45;;;;;;;;;;;;;;;12.71;80.92;101453.50;5116316;27;19998;-59
2022/03/19 09:53:11;;;;;;;;;;;;;;;11.73;75.93;101465.44;5134259;27;19991;-59
2022/03/19 09:55:39;;;;;;;;;;;;;;;10.77;74.45;101467.59;5110956;27;20412;-59
2022/03/19 09:58:05;;;;;;;;;;;;;;;12.41;73.55;101457.84;5130457;27;19920;-60
2022/03/19 10:00:31;;;;;;;;;;;;;;;11.24;70.62;101475.59;5131914;27;19949;-59
2022/03/19 10:03:02;;;;;;;;;;;;;;;11.32;72.51;101446.41;5132758;27;21326;-60
2022/03/19 10:08:37;;;;;;;;;;;;;;;11.57;72.55;101445.63;5116448;27;19950;-60
2022/03/19 10:11:06;;;;;;;;;;;;;;;11.44;72.07;101446.44;5116101;27;19926;-59
2022/03/19 10:13:36;;;;;;;;;;;;;;;12.07;71.74;101444.03;5128901;27;19926;-60
2022/03/19 10:16:01;;;;;;;;;;;;;;;12.94;70.54;101441.38;5130579;27;19959;-60
2022/03/19 10:18:27;;;;;;;;;;;;;;;12.95;72.44;101437.94;5129195;27;20388;-61
2022/03/19 10:20:56;;;;;;;;;;;;;;;13.17;69.48;101438.72;5130020;27;19920;-60
2022/03/19 10:23:34;;;;;;;;;;;;;;;11.66;68.63;101445.66;5131362;27;19934;-61
2022/03/19 10:25:59;;;;;;;;;;;;;;;12.94;68.11;101425.84;5126465;27;20014;-60
2022/03/19 10:28:32;;;;;;;;;;;;;;;12.48;70.77;101428.53;5132462;27;19998;-60
2022/03/19 10:30:57;;;;;;;;;;;;;;;13.14;73.58;101425.81;5129869;27;19926;-60
2022/03/19 10:33:23;;;;;;;;;;;;;;;12.22;67.38;101418.19;5126697;27;19920;-61
2022/03/19 10:35:50;;;;;;;;;;;;;;;13.19;70.66;101410.25;5107934;27;19919;-60
2022/03/19 10:38:16;;;;;;;;;;;;;;;12.60;69.59;101409.56;5127792;27;19915;-60
2022/03/19 10:40:42;;;;;;;;;;;;;;;13.10;70.12;101407.72;5131438;27;19922;-61
2022/03/19 10:43:08;;;;;;;;;;;;;;;12.84;65.47;101402.59;5110544;27;20249;-60
2022/03/19 10:45:34;;;;;;;;;;;;;;;12.09;59.81;101404.44;5128811;27;19919;-60
2022/03/19 10:48:00;;;;;;;;;;;;;;;12.85;64.44;101399.19;5110930;27;20402;-60
2022/03/19 10:50:25;;;;;;;;;;;;;;;13.21;64.92;101377.47;5127878;27;19946;-60
2022/03/19 10:52:52;;;;;;;;;;;;;;;13.38;58.89;101386.03;5131146;27;20500;-59
2022/03/19 10:55:18;;;;;;;;;;;;;;;12.69;62.57;101388.00;5131819;27;19923;-60
2022/03/19 10:57:44;;;;;;;;;;;;;;;12.76;56.59;101374.19;5130642;27;19972;-59
2022/03/19 11:00:09;;;;;;;;;;;;;;;12.55;57.29;101375.97;5110224;27;19930;-60
2022/03/19 11:11:59;;;;;;;;;;;;;;;12.40;59.19;101351.88;5106042;28;20392;-60
2022/03/19 11:17:32;;;;;;;;;;;;;;;14.48;63.56;101351.50;5104437;28;19922;-60
2022/03/19 11:20:02;;;;;;;;;;;;;;;13.29;60.44;101347.25;5105759;28;20249;-62
2022/03/19 11:22:39;;;;;;;;;;;;;;;13.49;57.53;101341.13;5112678;28;20369;-62
2022/03/19 11:25:09;;;;;;;;;;;;;;;12.80;52.99;101339.72;5105805;28;20334;-62
2022/03/19 11:27:37;;;;;;;;;;;;;;;12.64;58.25;101331.16;5091557;28;20393;-62
2022/03/19 11:30:04;;;;;;;;;;;;;;;13.23;57.23;101334.34;5100560;27;20006;-62
2022/03/19 11:32:51;;;;;;;;;;;;;;;13.23;54.86;101318.81;5128351;27;19924;-62
2022/03/19 11:41:29;;;;;;;;;;;;;;;14.29;53.70;101304.19;5132695;27;20584;-61
2022/03/19 11:44:13;;;;;;;;;;;;;;;12.65;54.10;101298.41;5133837;27;19916;-62
2022/03/19 11:46:55;;;;;;;;;;;;;;;14.12;50.88;101281.91;5134138;27;20010;-62
2022/03/19 11:49:39;;;;;;;;;;;;;;;13.58;50.81;101284.09;5135312;27;19931;-61
2022/03/19 11:52:04;;;;;;;;;;;;;;;13.29;52.49;101292.06;5133245;27;19975;-62
2022/03/19 11:54:30;;;;;;;;;;;;;;;13.32;52.36;101282.56;5112892;27;20009;-62
2022/03/19 11:56:55;;;;;;;;;;;;;;;13.92;54.01;101273.47;5129250;27;19954;-62
2022/03/19 11:59:23;;;;;;;;;;;;;;;14.19;50.48;101260.22;5135987;27;19976;-62
2022/03/19 12:01:56;;;;;;;;;;;;;;;12.92;49.23;101267.22;5134908;27;19931;-62
2022/03/19 12:04:21;;;;;;;;;;;;;;;14.36;55.61;101254.00;5130650;27;20019;-62
2022/03/19 12:06:57;;;;;;;;;;;;;;;13.94;52.14;101249.25;5127093;27;19923;-62
2022/03/19 12:09:40;;;;;;;;;;;;;;;14.01;50.63;101252.66;5134128;27;19916;-62
2022/03/19 12:12:11;;;;;;;;;;;;;;;13.37;49.94;101236.81;5130909;27;20002;-62
2022/03/19 12:14:36;;;;;;;;;;;;;;;13.98;56.26;101232.81;5134446;27;20013;-62
2022/03/19 12:17:21;;;;;;;;;;;;;;;13.48;52.67;101225.50;5131982;27;20010;-62
2022/03/19 12:19:48;;;;;;;;;;;;;;;13.48;50.51;101226.38;5132615;27;20276;-63
2022/03/19 12:22:13;;;;;;;;;;;;;;;13.78;47.37;101209.69;5137258;27;19926;-62
2022/03/19 12:24:39;;;;;;;;;;;;;;;14.69;50.01;101210.38;5111546;27;19923;-62
2022/03/19 12:27:05;;;;;;;;;;;;;;;13.57;50.23;101204.69;5113165;27;20979;-62
2022/03/19 12:29:31;;;;;;;;;;;;;;;14.38;47.28;101200.41;5131452;27;19916;-62
2022/03/19 12:31:56;;;;;;;;;;;;;;;13.22;50.36;101198.06;5134467;27;19911;-62
2022/03/19 12:34:22;;;;;;;;;;;;;;;14.57;50.24;101185.47;5135035;27;19987;-62
2022/03/19 12:36:52;;;;;;;;;;;;;;;14.98;53.35;101184.03;5135787;27;19923;-61
2022/03/19 12:39:17;;;;;;;;;;;;;;;14.44;51.86;101185.63;5132273;27;19932;-62
2022/03/19 12:41:43;;;;;;;;;;;;;;;14.93;50.48;101178.91;5132761;27;19922;-62
2022/03/19 12:44:18;;;;;;;;;;;;;;;13.90;53.30;101175.03;5133815;27;19923;-62
2022/03/19 12:46:43;;;;;;;;;;;;;;;13.36;50.53;101175.56;5130507;27;20022;-62
2022/03/19 12:49:11;;;;;;;;;;;;;;;14.42;49.70;101156.28;5133443;27;20005;-63
2022/03/19 12:51:39;;;;;;;;;;;;;;;14.47;53.18;101163.97;5134744;27;19947;-62
2022/03/19 12:54:24;;;;;;;;;;;;;;;13.78;51.30;101157.06;5131419;27;19923;-61
2022/03/19 12:56:50;;;;;;;;;;;;;;;14.39;51.17;101142.47;5131298;27;19926;-62
2022/03/19 12:59:22;;;;;;;;;;;;;;;13.26;48.57;101153.19;5131629;27;19919;-62
2022/03/19 13:01:47;;;;;;;;;;;;;;;14.54;44.79;101144.91;5133993;27;19919;-61
2022/03/19 13:04:20;;;;;;;;;;;;;;;15.50;48.28;101130.41;5134999;27;20376;-61
2022/03/19 13:06:45;;;;;;;;;;;;;;;13.77;45.63;101134.59;5132720;27;19911;-61
2022/03/19 13:09:11;;;;;;;;;;;;;;;13.65;46.73;101130.41;5135392;27;19941;-61
2022/03/19 13:11:44;;;;;;;;;;;;;;;13.87;49.33;101125.00;5132255;27;19966;-60
2022/03/19 13:14:12;;;;;;;;;;;;;;;13.74;48.53;101119.09;5134462;27;20013;-60
2022/03/19 13:16:38;;;;;;;;;;;;;;;13.75;49.12;101121.69;5133978;27;19915;-60
2022/03/19 13:19:04;;;;;;;;;;;;;;;13.81;49.53;101106.06;5113896;27;19922;-60
2022/03/19 13:21:30;;;;;;;;;;;;;;;13.52;49.65;101113.28;5133657;27;20370;-61
2022/03/19 13:23:58;;;;;;;;;;;;;;;14.54;48.60;101090.44;5131541;27;19940;-60
2022/03/19 13:26:24;;;;;;;;;;;;;;;13.75;46.51;101093.19;5135512;27;19998;-60